»·PEaware :: N20957 KPRC-KSBD

N20957 :: KPRC-KSBD

FLIGHT INFORMATION

Flight Status: Arrived
Operator: Privately registered:
United States
More flights under this callsign
Pilot: Charles P. (32095)
Aircraft: CESSNA 172 SKYHAWK
(C172)
More flights by this aircraft type
Origin: KPRC Love
United States
Destination: KSBD San Bernardino Intl
United States
More flights between these airports :: More routes between these airports
Route:
File this flight plan on PilotEdge
Remarks: N / A
Altitude:
(Current/Filed)
8,500ft
Speed:
(Current/Filed)
124kts
Departed: 12-Mar-21 01:19 PM
Arrived: 12-Mar-21 03:55 PM
Distance/Time
Traveled:
6498nm/2:36
Distance/Time
To Go:
Arrived

Flight Plot

Page will automatically refresh every two minutes.

Flight plan parsing failed; only flown route is shown


Map Options




Map Legend


Flown Route
Filed Route
Departure Airport
Arrival Airport
Navaid (VOR, NDB)
Fix

Horizontal Profiles

Position Reports

Time Latitude Longitude Heading Altitude Ground
Speed
12-Mar-21 12:53 34.646921 -112.423422 128 5024ft 0kts
12-Mar-21 12:54 34.646921 -112.423422 128 5024ft 0kts
12-Mar-21 12:56 34.646921 -112.423422 128 5024ft 0kts
12-Mar-21 12:56 34.646921 -112.423422 128 5024ft 0kts
12-Mar-21 12:57 34.646921 -112.423422 128 5024ft 0kts
12-Mar-21 12:58 34.646921 -112.423422 128 5024ft 0kts
12-Mar-21 12:59 34.646921 -112.423422 128 5024ft 0kts
12-Mar-21 13:00 34.646921 -112.423422 128 5024ft 0kts
12-Mar-21 13:01 34.646921 -112.423422 128 5024ft 0kts
12-Mar-21 13:02 34.646921 -112.423422 128 5024ft 0kts
12-Mar-21 13:03 34.646921 -112.423422 128 5024ft 0kts
12-Mar-21 13:04 34.646921 -112.423422 128 5024ft 0kts
12-Mar-21 13:05 34.646921 -112.423422 127 5024ft 0kts
12-Mar-21 13:06 34.646921 -112.423422 126 5024ft 0kts
12-Mar-21 13:07 34.646921 -112.423422 126 5024ft 0kts
12-Mar-21 13:08 34.646921 -112.423422 125 5024ft 0kts
12-Mar-21 13:09 34.647281 -112.423284 38 5025ft 5kts
12-Mar-21 13:10 34.647801 -112.423289 308 5027ft 0kts
12-Mar-21 13:11 34.649286 -112.423247 40 5023ft 13kts
12-Mar-21 13:12 34.653142 -112.419157 41 5006ft 20kts
12-Mar-21 13:13 34.657229 -112.414835 42 4987ft 15kts
12-Mar-21 13:14 34.660466 -112.410714 40 4961ft 18kts
12-Mar-21 13:15 34.661662 -112.410699 309 4958ft 0kts
12-Mar-21 13:16 34.661662 -112.410699 309 4958ft 0kts
12-Mar-21 13:17 34.661885 -112.411023 311 4958ft 4kts
12-Mar-21 13:18 34.657083 -112.416835 221 5044ft 64kts
12-Mar-21 13:19 34.643624 -112.428845 208 5569ft 63kts
12-Mar-21 13:20 34.635410 -112.446140 288 6035ft 79kts
12-Mar-21 13:21 34.644285 -112.472670 292 6544ft 89kts
12-Mar-21 13:22 34.646649 -112.504826 261 6791ft 102kts
12-Mar-21 13:23 34.643814 -112.533515 264 6948ft 70kts
12-Mar-21 13:24 34.652310 -112.548622 339 6305ft 74kts
12-Mar-21 13:25 34.676475 -112.552128 342 5906ft 102kts
12-Mar-21 13:26 34.687103 -112.578600 272 5976ft 84kts
12-Mar-21 13:27 34.687332 -112.606685 253 6010ft 64kts
12-Mar-21 13:28 34.668282 -112.622123 201 5580ft 101kts
12-Mar-21 13:29 34.645526 -112.637564 211 5706ft 88kts
12-Mar-21 13:30 34.631179 -112.661108 263 5606ft 100kts
12-Mar-21 13:31 34.628240 -112.693017 261 5768ft 88kts
12-Mar-21 13:32 34.625680 -112.719254 262 5877ft 66kts
12-Mar-21 13:33 34.623344 -112.743428 260 5639ft 75kts
12-Mar-21 13:34 34.620792 -112.768949 261 5612ft 76kts
12-Mar-21 13:35 34.617844 -112.799288 260 5327ft 112kts
12-Mar-21 13:36 34.613842 -112.839086 259 5173ft 105kts
12-Mar-21 13:37 34.610530 -112.872148 259 5180ft 111kts
12-Mar-21 13:38 34.606629 -112.912420 263 4733ft 125kts
12-Mar-21 13:39 34.602386 -112.953047 262 4661ft 118kts
12-Mar-21 13:40 34.598524 -112.992013 262 4657ft 115kts
12-Mar-21 13:41 34.594795 -113.029129 261 4946ft 100kts
12-Mar-21 13:42 34.591706 -113.059619 262 5447ft 83kts
12-Mar-21 13:43 34.588771 -113.089048 263 5655ft 101kts
12-Mar-21 13:44 34.585058 -113.125152 263 5658ft 112kts
12-Mar-21 13:45 34.581212 -113.162917 263 5664ft 113kts
12-Mar-21 13:46 34.577332 -113.200824 262 5797ft 105kts
12-Mar-21 13:47 34.574093 -113.232309 263 6267ft 83kts
12-Mar-21 13:48 34.571611 -113.256349 263 6391ft 61kts
12-Mar-21 13:49 34.569186 -113.280852 263 5898ft 92kts
12-Mar-21 13:50 34.565486 -113.315908 263 5686ft 107kts
12-Mar-21 13:51 34.561862 -113.350905 263 5666ft 101kts
12-Mar-21 13:52 34.558459 -113.383710 263 5675ft 95kts
12-Mar-21 13:53 34.555167 -113.415367 263 5674ft 91kts
12-Mar-21 13:54 34.551897 -113.446840 263 5664ft 94kts
12-Mar-21 13:55 34.548642 -113.477707 263 5671ft 90kts
12-Mar-21 13:56 34.545487 -113.507870 263 5676ft 89kts
12-Mar-21 13:57 34.542404 -113.537301 263 5680ft 88kts
12-Mar-21 13:58 34.539531 -113.564212 263 5640ft 65kts
12-Mar-21 13:59 34.537030 -113.586100 256 4968ft 85kts
12-Mar-21 14:00 34.528476 -113.627901 257 3233ft 136kts
12-Mar-21 14:01 34.522053 -113.669867 260 2930ft 120kts
12-Mar-21 14:02 34.516862 -113.707266 260 3038ft 108kts
12-Mar-21 14:03 34.506850 -113.740711 241 3185ft 109kts
12-Mar-21 14:04 34.503617 -113.775041 268 3343ft 115kts
12-Mar-21 14:05 34.501452 -113.814640 266 3128ft 129kts
12-Mar-21 14:06 34.506485 -113.858448 271 2701ft 130kts
12-Mar-21 14:07 34.503532 -113.900439 262 2652ft 123kts
12-Mar-21 14:08 34.499172 -113.941483 263 2647ft 122kts
12-Mar-21 14:09 34.494756 -113.982002 263 2784ft 113kts
12-Mar-21 14:10 34.490864 -114.017576 263 3282ft 101kts
12-Mar-21 14:11 34.487238 -114.050733 263 3788ft 97kts
12-Mar-21 14:12 34.483695 -114.082979 263 4295ft 96kts
12-Mar-21 14:13 34.480103 -114.115830 263 4624ft 106kts
12-Mar-21 14:14 34.475917 -114.153662 263 4644ft 116kts
12-Mar-21 14:15 34.471601 -114.192622 263 4648ft 117kts
12-Mar-21 14:16 34.467263 -114.231707 263 4650ft 117kts
12-Mar-21 14:17 34.462889 -114.271027 263 4648ft 117kts
12-Mar-21 14:18 34.458541 -114.310045 263 4648ft 117kts
12-Mar-21 14:19 34.454173 -114.349059 263 4646ft 116kts
12-Mar-21 14:20 34.449824 -114.387824 262 4647ft 116kts
12-Mar-21 14:21 34.445470 -114.426456 262 4645ft 116kts
12-Mar-21 14:22 34.441109 -114.465136 263 4639ft 115kts
12-Mar-21 14:23 34.436724 -114.503776 263 4639ft 116kts
12-Mar-21 14:24 34.432342 -114.542424 263 4637ft 115kts
12-Mar-21 14:25 34.427955 -114.580956 263 4638ft 115kts
12-Mar-21 14:26 34.423540 -114.619547 263 4639ft 115kts
12-Mar-21 14:27 34.419129 -114.658055 263 4638ft 115kts
12-Mar-21 14:28 34.414722 -114.696395 263 4638ft 115kts
12-Mar-21 14:29 34.410298 -114.734820 263 4638ft 115kts
12-Mar-21 14:30 34.405884 -114.773082 263 4633ft 114kts
12-Mar-21 14:31 34.401420 -114.811427 263 4622ft 114kts
12-Mar-21 14:32 34.396943 -114.850137 263 4625ft 117kts
12-Mar-21 14:33 34.392390 -114.889146 263 4617ft 116kts
12-Mar-21 14:34 34.387996 -114.926643 263 4866ft 102kts
12-Mar-21 14:35 34.384213 -114.959066 263 5370ft 94kts
12-Mar-21 14:36 34.380585 -114.990009 263 5878ft 91kts
12-Mar-21 14:37 34.377016 -115.020307 264 6373ft 89kts
12-Mar-21 14:38 34.373369 -115.051310 263 6636ft 102kts
12-Mar-21 14:39 34.369104 -115.087255 263 6651ft 110kts
12-Mar-21 14:40 34.364717 -115.124315 263 6651ft 111kts
12-Mar-21 14:41 34.360410 -115.160477 264 6641ft 101kts
12-Mar-21 14:42 34.357033 -115.188792 265 6532ft 79kts
12-Mar-21 14:43 34.352543 -115.226248 263 5592ft 130kts
12-Mar-21 14:44 34.347358 -115.269756 263 4743ft 123kts
12-Mar-21 14:45 34.342877 -115.307164 263 4655ft 103kts
12-Mar-21 14:46 34.338867 -115.340500 263 4658ft 98kts
12-Mar-21 14:47 34.334949 -115.373040 264 4656ft 97kts
12-Mar-21 14:48 34.330962 -115.406020 264 4658ft 100kts
12-Mar-21 14:49 34.326889 -115.439544 264 4652ft 100kts
12-Mar-21 14:50 34.322861 -115.472803 264 4655ft 100kts
12-Mar-21 14:51 34.318763 -115.506383 264 4657ft 101kts
12-Mar-21 14:52 34.314624 -115.540319 264 4656ft 102kts
12-Mar-21 14:53 34.310439 -115.574525 264 4664ft 105kts
12-Mar-21 14:54 34.306096 -115.609908 264 4657ft 106kts
12-Mar-21 14:55 34.301782 -115.645051 264 4659ft 105kts
12-Mar-21 14:56 34.297455 -115.680183 264 4658ft 105kts
12-Mar-21 14:57 34.293130 -115.715143 264 4660ft 104kts
12-Mar-21 14:58 34.288809 -115.750105 264 4664ft 106kts
12-Mar-21 15:00 34.284441 -115.785300 264 4661ft 105kts
12-Mar-21 15:01 34.280095 -115.820217 264 4696ft 103kts
12-Mar-21 15:02 34.275658 -115.855719 264 4719ft 109kts
12-Mar-21 15:03 34.271058 -115.892500 264 4703ft 109kts
12-Mar-21 15:04 34.266514 -115.928794 264 4706ft 108kts
12-Mar-21 15:05 34.261959 -115.965056 264 4707ft 108kts
12-Mar-21 15:06 34.257404 -116.001181 264 4708ft 109kts
12-Mar-21 15:07 34.252784 -116.037816 264 4708ft 110kts
12-Mar-21 15:08 34.248136 -116.074657 264 4709ft 112kts
12-Mar-21 15:09 34.243438 -116.111564 264 4707ft 111kts
12-Mar-21 15:10 34.238749 -116.148411 264 4708ft 111kts
12-Mar-21 15:11 34.234006 -116.185580 264 4710ft 112kts
12-Mar-21 15:12 34.229250 -116.222869 264 4707ft 112kts
12-Mar-21 15:13 34.224445 -116.260336 264 4711ft 113kts
12-Mar-21 15:14 34.219616 -116.297970 263 4706ft 113kts
12-Mar-21 15:15 34.214769 -116.335551 264 4706ft 113kts
12-Mar-21 15:16 34.209940 -116.372934 264 4712ft 113kts
12-Mar-21 15:17 34.205065 -116.410703 264 4707ft 113kts
12-Mar-21 15:18 34.200146 -116.448582 263 4709ft 114kts
12-Mar-21 15:19 34.192949 -116.485400 226 4675ft 118kts
12-Mar-21 15:19 34.172728 -116.506164 223 4943ft 106kts
12-Mar-21 15:21 34.147223 -116.529656 223 5521ft 94kts
12-Mar-21 15:22 34.126344 -116.547887 222 6019ft 90kts
12-Mar-21 15:22 34.109477 -116.561953 223 6467ft 89kts
12-Mar-21 15:23 34.086225 -116.581836 223 6652ft 111kts
12-Mar-21 15:24 34.060005 -116.605359 223 6651ft 119kts
12-Mar-21 15:26 34.029143 -116.633213 223 6683ft 121kts
12-Mar-21 15:26 34.006670 -116.653777 223 6669ft 121kts
12-Mar-21 15:27 33.979601 -116.678856 223 6660ft 121kts
12-Mar-21 15:28 33.953104 -116.703671 223 6656ft 121kts
12-Mar-21 15:29 33.932309 -116.733058 259 6670ft 115kts
12-Mar-21 15:30 33.924963 -116.773585 262 6149ft 134kts
12-Mar-21 15:31 33.918278 -116.818119 262 5345ft 134kts
12-Mar-21 15:32 33.912453 -116.860524 262 4751ft 123kts
12-Mar-21 15:33 33.911378 -116.900258 293 4702ft 118kts
12-Mar-21 15:34 33.928226 -116.934222 302 4700ft 118kts
12-Mar-21 15:35 33.947714 -116.970347 302 4130ft 135kts
12-Mar-21 15:36 33.968095 -117.007684 302 3429ft 129kts
12-Mar-21 15:37 33.972782 -117.048057 289 2786ft 130kts
12-Mar-21 15:38 33.997666 -117.076654 319 2695ft 120kts
12-Mar-21 15:40 34.027698 -117.106555 319 2543ft 127kts
12-Mar-21 15:40 34.050568 -117.129267 319 2262ft 125kts
12-Mar-21 15:41 34.071918 -117.125594 62 2469ft 116kts
12-Mar-21 15:42 34.073280 -117.090075 83 3123ft 93kts
12-Mar-21 15:43 34.076256 -117.057183 113 3487ft 108kts
12-Mar-21 15:44 34.059986 -117.026838 121 3969ft 107kts
12-Mar-21 15:45 34.074160 -117.035721 294 4164ft 113kts
12-Mar-21 15:46 34.081960 -117.074429 275 4000ft 122kts
12-Mar-21 15:47 34.086659 -117.113362 281 2846ft 110kts
12-Mar-21 15:48 34.090984 -117.147890 271 2185ft 94kts
12-Mar-21 15:49 34.093795 -117.176724 262 2055ft 87kts
12-Mar-21 15:50 34.088794 -117.205743 252 1857ft 92kts
12-Mar-21 15:51 34.082359 -117.232873 260 1824ft 81kts
12-Mar-21 15:52 34.075947 -117.259214 267 1719ft 83kts
12-Mar-21 15:53 34.089271 -117.255380 67 1277ft 61kts
12-Mar-21 15:54 34.092861 -117.243334 68 1103ft 21kts
12-Mar-21 15:55 34.094570 -117.240826 36 1108ft 0kts
12-Mar-21 15:56 34.094570 -117.240826 36 1108ft 0kts
12-Mar-21 15:57 34.094570 -117.240826 36 1108ft 0kts
12-Mar-21 15:58 34.094570 -117.240826 36 1108ft 0kts
12-Mar-21 15:59 34.094570 -117.240826 36 1108ft 0kts
12-Mar-21 16:00 34.095623 -117.239933 41 1113ft 13kts
12-Mar-21 16:01 34.097173 -117.235025 70 1129ft 12kts
12-Mar-21 16:02 34.098042 -117.232093 70 1137ft 16kts
12-Mar-21 16:03 34.099376 -117.227919 42 1142ft 9kts
12-Mar-21 16:04 34.100803 -117.227875 351 1144ft 7kts
12-Mar-21 16:05 34.101196 -117.227857 12 1145ft 0kts
12-Mar-21 16:06 34.101196 -117.227857 12 1145ft 0kts
12-Mar-21 16:07 0.000408 0.013975 359 3ft 0kts

Navigation Log

Ident Type
Flight plan parsing failed, navigation log unavailable